Latest Weather Observations for Troughton Island

IDW60801

Issued at 2:03 pm WST Saturday 10 December 2022 (issued every 10 minutes, with the page automatically refreshed every 10 minutes)

About weather observations | Map of weather stations | Latest weather observations for WA | Other Formats
Station Details ID: 001007 Name: TROUGHTON ISLAND Lat: -13.75 Lon: 126.15 Height: 6.0 m
Data from the previous 72 hours. | See also: Recent months at Troughton Island
Date/Time
WST
Temp
°C
App
Temp
°C
Dew
Point
°C
Rel
Hum
%
Delta-T
°C
Wind Press
QNH
hPa
Press
MSL
hPa
Rain since
9am
mm
Dir  Spd
km/h
Gust
km/h
Spd
kts
Gust
kts
10/02:00pm 32.6 36.8 27.4 74 3.8 WNW 20 24 11 13 1006.5 1006.4 0.0
10/01:30pm 33.0 36.6 27.0 70 4.3 WNW 22 26 12 14 1006.6 1006.5 0.0
10/01:00pm 32.8 36.1 26.6 70 4.5 WNW 22 26 12 14 1006.8 1006.7 0.0
10/12:30pm 32.8 36.3 26.8 70 4.3 WNW 22 26 12 14 1007.1 1007.0 0.0
10/12:00pm 33.0 36.6 27.0 70 4.3 WNW 22 26 12 14 1007.1 1007.0 0.0
10/11:30am 32.1 36.3 27.3 76 3.5 WNW 20 24 11 13 1007.3 1007.2 0.0
10/11:00am 32.2 36.4 27.0 74 3.8 NW 19 24 10 13 1007.6 1007.5 0.0
10/10:30am 32.6 36.9 26.6 70 4.3 WNW 17 20 9 11 1007.8 1007.7 0.0
10/10:00am 32.5 37.2 27.3 74 3.8 WNW 17 19 9 10 1008.0 1007.9 0.0
10/09:30am 31.9 36.5 26.0 71 4.2 WNW 13 17 7 9 1008.0 1007.9 0.0
10/09:00am 31.8 37.3 25.6 69 4.4 SW 7 9 4 5 1008.2 1008.1 0.0
10/08:30am 31.7 37.0 25.8 71 4.2 SSW 9 13 5 7 1008.4 1008.3 0.0
10/08:00am 31.5 35.8 26.1 73 3.9 SSW 15 19 8 10 1008.5 1008.4 0.0
10/07:30am 30.8 36.2 27.2 81 2.6 SW 13 17 7 9 1008.8 1008.7 0.0
10/07:00am 30.3 35.4 26.7 81 2.6 SSW 13 17 7 9 1008.8 1008.7 0.0
10/06:30am 30.4 35.6 26.8 81 2.6 S 13 17 7 9 1008.7 1008.6 0.0
10/06:00am 29.8 34.3 26.4 82 2.4 SSW 15 19 8 10 1007.9 1007.8 0.0
10/05:30am 29.5 33.1 26.5 84 2.1 W 20 24 11 13 1007.3 1007.2 0.0
10/05:00am 29.4 32.4 26.2 83 2.3 WSW 22 24 12 13 1007.0 1006.9 0.0
10/04:30am 29.4 32.3 26.0 82 2.4 W 22 26 12 14 1006.3 1006.2 0.0
10/04:00am 29.4 32.1 26.2 83 2.3 W 24 28 13 15 1005.8 1005.7 0.0
10/03:30am 29.4 31.8 25.8 81 2.6 W 24 28 13 15 1005.9 1005.8 0.0
10/03:00am 29.6 31.8 26.0 81 2.6 W 26 32 14 17 1005.7 1005.6 0.0
10/02:30am 29.5 32.2 26.3 83 2.3 W 24 30 13 16 1005.6 1005.5 0.0
10/02:00am 29.5 32.0 25.9 81 2.6 WSW 24 28 13 15 1005.9 1005.8 0.0
10/01:30am 29.4 32.3 26.0 82 2.4 W 22 26 12 14 1005.9 1005.8 0.0
10/01:00am 29.5 32.1 26.1 82 2.4 W 24 30 13 16 1005.9 1005.8 0.0
10/12:30am 29.7 32.2 26.5 83 2.3 WSW 26 28 14 15 1006.3 1006.2 0.0
10/12:00am 29.7 32.8 26.3 82 2.4 W 22 26 12 14 1006.9 1006.8 0.0
 
Date/Time
WST
Temp
°C
App
Temp
°C
Dew
Point
°C
Rel
Hum
%
Delta-T
°C
Wind Press
QNH
hPa
Press
MSL
hPa
Rain since
9am
mm
Dir  Spd
km/h
Gust
km/h
Spd
kts
Gust
kts
09/11:30pm 29.7 32.2 25.9 80 2.7 W 24 28 13 15 1006.7 1006.6 0.0
09/11:00pm 29.6 31.6 25.8 80 2.7 W 26 30 14 16 1006.6 1006.5 0.0
09/10:30pm 29.8 32.2 26.4 82 2.4 WNW 26 30 14 16 1006.7 1006.6 0.0
09/10:00pm 29.7 32.0 25.7 79 2.8 WNW 24 28 13 15 1007.1 1007.0 0.0
09/09:30pm 29.7 32.2 25.9 80 2.7 WNW 24 28 13 15 1007.1 1007.0 0.0
09/09:00pm 29.7 31.8 25.9 80 2.7 WNW 26 30 14 16 1006.9 1006.8 0.0
09/08:30pm 29.7 32.3 26.1 81 2.6 WNW 24 28 13 15 1006.7 1006.6 0.0
09/08:00pm 29.9 31.7 26.1 80 2.7 WNW 28 32 15 17 1006.6 1006.5 0.0
09/07:30pm 29.9 31.7 26.1 80 2.7 WNW 28 32 15 17 1006.3 1006.2 0.0
09/07:00pm 29.9 32.1 26.1 80 2.7 WNW 26 30 14 16 1005.9 1005.8 0.0
09/06:30pm 29.9 31.3 25.4 77 3.2 WNW 28 32 15 17 1005.5 1005.4 0.0
09/06:00pm 30.0 31.2 25.7 78 3.1 WNW 30 33 16 18 1005.0 1004.9 0.0
09/05:30pm 30.5 31.3 25.6 75 3.5 WNW 32 39 17 21 1004.8 1004.7 0.0
09/05:00pm 30.8 32.1 26.5 78 3.1 WNW 32 39 17 21 1004.7 1004.6 0.0
09/04:30pm 31.2 32.2 26.0 74 3.7 WNW 32 39 17 21 1004.6 1004.5 0.0
09/04:00pm 31.6 32.7 26.2 73 3.9 WNW 32 37 17 20 1004.4 1004.3 0.0
09/03:30pm 31.8 33.5 26.4 73 3.9 WNW 30 35 16 19 1004.5 1004.4 0.0
09/03:00pm 32.1 34.4 26.2 71 4.2 WNW 26 32 14 17 1004.9 1004.8 0.0
09/02:30pm 32.1 34.4 26.2 71 4.2 WNW 26 30 14 16 1005.2 1005.1 0.0
09/02:00pm 32.6 35.4 26.9 72 4.1 WNW 26 30 14 16 1005.6 1005.5 0.0
09/01:30pm 32.1 34.8 26.2 71 4.2 WNW 24 30 13 16 1005.8 1005.7 0.0
09/01:00pm 32.4 35.0 26.7 72 4.1 WNW 26 32 14 17 1006.2 1006.1 0.0
09/12:30pm 32.4 34.9 26.5 71 4.2 WNW 26 30 14 16 1006.5 1006.4 0.0
09/12:00pm 32.4 35.3 26.5 71 4.2 WNW 24 28 13 15 1007.0 1006.9 0.0
09/11:30am 32.3 35.5 26.4 71 4.2 W 22 28 12 15 1007.3 1007.2 0.0
09/11:00am 32.2 35.4 25.8 69 4.6 W 20 24 11 13 1007.8 1007.7 0.0
09/10:30am 32.0 35.4 26.1 71 4.2 WSW 20 22 11 12 1008.3 1008.2 0.0
09/10:00am 31.5 34.5 25.6 71 4.2 WSW 20 22 11 12 1008.6 1008.5 0.0
09/09:30am 31.5 34.2 25.6 71 4.2 WSW 22 26 12 14 1008.6 1008.5 0.0
09/09:00am 31.2 34.1 26.5 76 3.4 WSW 24 28 13 15 1008.7 1008.6 0.0
09/08:30am 31.3 34.2 26.6 76 3.4 WSW 24 28 13 15 1008.6 1008.5 0.0
09/08:00am 31.1 34.3 25.9 74 3.7 WSW 20 24 11 13 1008.4 1008.3 0.0
09/07:30am 30.7 33.7 25.3 73 3.8 WSW 19 22 10 12 1008.4 1008.3 0.0
09/07:00am 30.3 33.8 25.4 75 3.5 WSW 17 19 9 10 1008.5 1008.4 0.0
09/06:30am 30.0 33.7 25.1 75 3.4 WSW 15 17 8 9 1008.3 1008.2 0.0
09/06:00am 29.6 33.0 24.7 75 3.4 WSW 15 17 8 9 1008.3 1008.2 0.0
09/05:30am 29.0 31.9 23.9 74 3.5 WSW 15 17 8 9 1007.9 1007.8 0.0
09/05:00am 28.7 31.5 24.3 77 3.1 W 17 19 9 10 1007.6 1007.5 0.0
09/04:30am 28.9 32.1 24.9 79 2.8 W 17 19 9 10 1007.2 1007.1 0.0
09/04:00am 28.9 31.9 25.3 81 2.5 W 19 20 10 11 1007.0 1006.9 0.0
09/03:30am 28.8 32.3 25.4 82 2.4 W 17 20 9 11 1006.9 1006.8 0.0
09/03:00am 28.8 31.9 25.4 82 2.4 W 19 20 10 11 1006.8 1006.7 0.0
09/02:30am 28.7 31.7 25.3 82 2.4 W 19 20 10 11 1006.5 1006.4 0.0
09/02:00am 28.8 32.3 25.4 82 2.4 W 17 20 9 11 1006.3 1006.2 0.0
09/01:30am 28.9 32.1 25.5 82 2.4 W 19 20 10 11 1006.4 1006.3 0.0
09/01:00am 29.0 32.1 25.4 81 2.5 W 19 20 10 11 1006.7 1006.6 0.0
09/12:30am 28.9 32.3 25.3 81 2.5 W 17 20 9 11 1006.9 1006.8 0.0
09/12:00am 28.9 32.3 25.3 81 2.5 WNW 17 20 9 11 1007.4 1007.3 0.0
 
Date/Time
WST
Temp
°C
App
Temp
°C
Dew
Point
°C
Rel
Hum
%
Delta-T
°C
Wind Press
QNH
hPa
Press
MSL
hPa
Rain since
9am
mm
Dir  Spd
km/h
Gust
km/h
Spd
kts
Gust
kts
08/11:30pm 28.9 32.4 25.5 82 2.4 WNW 17 19 9 10 1007.5 1007.4 0.0
08/11:00pm 29.0 32.9 25.4 81 2.5 WNW 15 17 8 9 1008.0 1007.9 0.0
08/10:30pm 28.9 33.2 25.5 82 2.4 WNW 13 17 7 9 1008.2 1008.1 0.0
08/10:00pm 28.8 32.9 25.2 81 2.5 NW 13 17 7 9 1008.2 1008.1 0.0
08/09:30pm 28.8 32.9 25.2 81 2.5 NW 13 15 7 8 1008.2 1008.1 0.0
08/09:00pm 28.7 32.7 25.1 81 2.5 NW 13 15 7 8 1008.3 1008.2 0.0
08/08:30pm 28.7 32.7 25.1 81 2.5 NNW 13 15 7 8 1008.1 1008.0 0.0
08/08:00pm 28.6 33.1 25.2 82 2.4 NNW 11 13 6 7 1008.0 1007.9 0.0
08/07:30pm 29.0 33.4 25.0 79 2.8 NW 11 15 6 8 1007.6 1007.5 0.0
08/07:00pm 29.0 33.0 25.0 79 2.8 NW 13 15 7 8 1007.3 1007.2 0.0
08/06:30pm 29.3 33.0 25.1 78 3.0 NNW 15 17 8 9 1006.8 1006.7 0.0
08/06:00pm 29.7 33.8 25.2 77 3.2 NW 13 17 7 9 1006.3 1006.2 0.0
08/05:30pm 30.2 33.2 24.6 72 3.9 NW 17 19 9 10 1006.0 1005.9 0.0
08/05:00pm 30.9 33.3 24.3 68 4.6 NW 19 22 10 12 1005.9 1005.8 0.0
08/04:30pm 31.5 34.7 24.9 68 4.6 WNW 17 20 9 11 1005.7 1005.6 0.0
08/04:00pm 31.6 34.8 25.5 70 4.3 WNW 19 22 10 12 1005.4 1005.3 0.0
08/03:30pm 31.9 34.7 25.0 67 4.9 WNW 19 20 10 11 1005.4 1005.3 0.0
08/03:00pm 32.0 34.6 24.6 65 5.2 W 19 22 10 12 1005.8 1005.7 0.0
08/02:30pm 31.7 35.0 25.1 68 4.7 W 17 20 9 11 1006.2 1006.1 0.0
08/02:00pm 31.7 35.2 24.8 67 4.9 W 15 19 8 10 1006.4 1006.3 0.0
08/01:30pm 31.9 35.5 25.0 67 4.9 W 15 17 8 9 1006.8 1006.7 0.0
08/01:00pm 32.4 36.5 25.7 68 4.8 W 15 17 8 9 1007.1 1007.0 0.0
08/12:30pm 31.6 35.3 25.2 69 4.5 WNW 15 17 8 9 1007.6 1007.5 0.0
08/12:00pm 31.6 35.3 25.2 69 4.5 WNW 15 19 8 10 1007.7 1007.6 0.0
08/11:30am 31.6 35.7 25.2 69 4.5 WNW 13 15 7 8 1008.1 1008.0 0.0
08/11:00am 31.4 35.8 25.0 69 4.5 W 11 15 6 8 1008.5 1008.4 0.0
08/10:30am 31.3 35.5 25.4 71 4.2 WNW 13 17 7 9 1008.8 1008.7 0.0
08/10:00am 31.3 35.9 25.4 71 4.2 W 11 15 6 8 1009.0 1008.9 0.0
08/09:30am 30.8 34.7 24.9 71 4.1 WSW 13 15 7 8 1009.3 1009.2 0.0
08/09:00am 30.9 35.5 25.3 72 4.0 SSE 11 15 6 8 1009.4 1009.3 0.0
08/08:30am 30.7 35.8 25.5 74 3.7 SSE 9 11 5 6 1009.4 1009.3 0.0
08/08:00am 30.5 35.1 25.3 74 3.7 SSE 11 13 6 7 1009.4 1009.3 0.0
08/07:30am 30.1 35.5 25.4 76 3.3 SSE 7 11 4 6 1009.4 1009.3 0.0
08/07:00am 29.5 35.1 25.5 79 2.8 SSE 6 9 3 5 1009.3 1009.2 0.0
08/06:30am 29.1 34.0 25.3 80 2.7 NW 9 11 5 6 1009.1 1009.0 0.0
08/06:00am 29.0 33.7 25.6 82 2.4 NW 11 13 6 7 1008.8 1008.7 0.0
08/05:30am 28.2 31.8 25.0 83 2.2 NW 15 17 8 9 1008.3 1008.2 0.0
08/05:00am 28.1 32.1 25.1 84 2.1 NW 13 17 7 9 1008.0 1007.9 0.0
08/04:30am 28.0 31.6 25.0 84 2.1 NW 15 17 8 9 1007.7 1007.6 0.0
08/04:00am 28.0 31.9 24.8 83 2.2 NW 13 17 7 9 1007.4 1007.3 0.0
08/03:30am 27.9 31.9 25.1 85 2.0 NW 13 15 7 8 1007.2 1007.1 0.0
08/03:00am 27.8 31.9 25.2 86 1.8 NW 13 15 7 8 1007.1 1007.0 0.0
08/02:30am 28.0 32.4 25.6 87 1.7 NW 13 15 7 8 1007.0 1006.9 0.0
08/02:00am 27.8 32.4 25.4 87 1.7 NW 11 13 6 7 1006.8 1006.7 0.0
08/01:30am 28.0 32.7 25.6 87 1.7 NNW 11 13 6 7 1006.8 1006.7 0.0
08/01:00am 28.1 33.3 25.7 87 1.7 NW 9 11 5 6 1006.8 1006.7 0.0
08/12:30am 28.0 33.4 25.4 86 1.8 NW 7 11 4 6 1007.1 1007.0 0.0
08/12:00am 28.1 33.4 25.3 85 2.0 NW 7 9 4 5 1007.2 1007.1 0.0
 
Date/Time
WST
Temp
°C
App
Temp
°C
Dew
Point
°C
Rel
Hum
%
Delta-T
°C
Wind Press
QNH
hPa
Press
MSL
hPa
Rain since
9am
mm
Dir  Spd
km/h
Gust
km/h
Spd
kts
Gust
kts
07/11:30pm 28.0 33.1 25.6 87 1.7 NNW 9 11 5 6 1007.4 1007.3 0.0
07/11:00pm 28.1 33.0 25.3 85 2.0 NW 9 11 5 6 1007.7 1007.6 0.0
07/10:30pm 28.7 34.1 25.5 83 2.3 WNW 7 9 4 5 1008.2 1008.1 0.0
07/10:00pm 28.4 33.5 25.6 85 2.0 WNW 9 11 5 6 1007.9 1007.8 0.0
07/09:30pm 28.9 33.7 25.7 83 2.3 WNW 11 13 6 7 1007.6 1007.5 0.0
07/09:00pm 28.7 33.4 24.9 80 2.7 NW 9 11 5 6 1007.6 1007.5 0.0
07/08:30pm 28.4 32.8 24.4 79 2.8 NW 9 11 5 6 1007.6 1007.5 0.0
07/08:00pm 28.7 32.8 24.5 78 2.9 NW 11 13 6 7 1007.5 1007.4 0.0
07/07:30pm 29.1 33.0 24.2 75 3.4 NW 11 13 6 7 1007.1 1007.0 0.0
07/07:00pm 29.6 33.3 24.5 74 3.6 WNW 13 17 7 9 1006.8 1006.7 0.0
07/06:30pm 29.7 33.1 24.6 74 3.6 WNW 15 15 8 8 1006.6 1006.5 0.0
07/06:00pm 29.8 33.6 24.7 74 3.6 NW 13 15 7 8 1006.5 1006.4 0.0
07/05:30pm 30.3 34.5 24.7 72 3.9 NW 11 13 6 7 1006.4 1006.3 0.0
07/05:00pm 30.6 35.2 24.7 71 4.1 NW 9 11 5 6 1006.1 1006.0 0.0
07/04:30pm 31.1 35.1 25.0 70 4.3 NW 13 17 7 9 1005.9 1005.8 0.0
07/04:00pm 31.6 35.2 25.0 68 4.7 NW 15 19 8 10 1005.6 1005.5 0.0
07/03:30pm 31.9 36.3 26.2 72 4.1 NNW 15 19 8 10 1005.3 1005.2 0.0
07/03:00pm 31.7 35.9 25.3 69 4.5 NW 13 19 7 10 1005.8 1005.7 0.0
07/02:30pm 32.0 36.3 26.1 71 4.2 NW 15 19 8 10 1005.7 1005.6 0.0

Other formats

Comma delimited format used in spreadsheet applications
http://www.bom.gov.au/fwo/IDW60801/IDW60801.94102.axf

JavaScript Object Notation format (JSON) in row-major order
http://www.bom.gov.au/fwo/IDW60801/IDW60801.94102.json

Data quality

Most of these data are generated automatically and are frequently updated. Quality checks on data are not normally performed. It is possible for incorrect values to appear. Refer to information at About Latest Weather Observations and please check the disclaimer before using these data.